Time;durP1;ratioP1;P1;durP2;ratioP2;P2;SDS_P1;SDS_P2;PMS_P1;PMS_P2;Temp;Humidity;BMP_temperature;BMP_pressure;BME280_temperature;BME280_humidity;BME280_pressure;Samples;Min_cycle;Max_cycle;Signal;HPM_P1;HPM_P2
2024/01/18 00:00:27;;;;;;;29.08;19.63;;;;;;;4.18;54.89;99383.28;4947957;28;98468;-83
2024/01/18 00:02:54;;;;;;;28.25;21.60;;;;;;;4.18;55.00;99393.06;4933939;28;98213;-82
2024/01/18 00:05:21;;;;;;;24.05;18.25;;;;;;;4.18;54.86;99396.56;4958101;28;98114;-83
2024/01/18 00:07:48;;;;;;;27.67;21.52;;;;;;;4.19;54.88;99406.25;4942898;28;98576;-82
2024/01/18 00:10:15;;;;;;;27.48;19.55;;;;;;;4.21;54.89;99416.75;4949377;28;97594;-83
2024/01/18 00:12:42;;;;;;;27.60;21.38;;;;;;;4.21;54.96;99416.75;4946466;28;97268;-83
2024/01/18 00:15:09;;;;;;;26.13;19.98;;;;;;;4.20;54.92;99421.22;4944119;28;98144;-83
2024/01/18 00:17:37;;;;;;;26.33;19.67;;;;;;;4.19;54.72;99424.84;4950434;28;100494;-83
2024/01/18 00:20:04;;;;;;;28.13;21.67;;;;;;;4.18;55.00;99425.78;4949558;28;97403;-83
2024/01/18 00:22:31;;;;;;;28.05;20.92;;;;;;;4.19;54.97;99426.66;4971622;28;97519;-83
2024/01/18 00:24:58;;;;;;;27.50;20.85;;;;;;;4.18;55.15;99414.31;4945993;28;99604;-83
2024/01/18 00:27:25;;;;;;;27.40;21.33;;;;;;;4.17;55.18;99421.44;4944381;28;97863;-83
2024/01/18 00:29:52;;;;;;;26.33;21.23;;;;;;;4.16;54.92;99427.72;4942270;28;97420;-83
2024/01/18 00:32:19;;;;;;;24.15;20.13;;;;;;;4.13;55.02;99435.88;4947645;28;98265;-83
2024/01/18 00:34:46;;;;;;;26.40;20.88;;;;;;;4.12;55.08;99443.00;4949698;28;97982;-83
2024/01/18 00:37:14;;;;;;;28.88;20.85;;;;;;;4.13;55.26;99449.16;4938282;28;100407;-83
2024/01/18 00:39:42;;;;;;;27.60;21.02;;;;;;;4.11;55.17;99441.28;4947259;28;96970;-83
2024/01/18 00:42:10;;;;;;;26.67;21.40;;;;;;;4.14;55.32;99435.78;4931764;28;97445;-83
2024/01/18 00:44:36;;;;;;;26.38;21.00;;;;;;;4.13;55.35;99442.03;4946855;28;100377;-82
2024/01/18 00:47:04;;;;;;;30.58;20.77;;;;;;;4.12;55.11;99445.66;4949351;28;98440;-83
2024/01/18 00:49:31;;;;;;;27.25;20.90;;;;;;;4.12;55.33;99445.66;4942273;28;97543;-83
2024/01/18 00:51:58;;;;;;;27.30;20.88;;;;;;;4.12;55.09;99455.44;4946917;28;98537;-84
2024/01/18 00:54:25;;;;;;;32.63;20.90;;;;;;;4.10;55.30;99449.38;4944999;28;100630;-83
2024/01/18 00:56:52;;;;;;;24.10;19.95;;;;;;;4.11;55.48;99459.03;4945235;28;100400;-83
2024/01/18 00:59:19;;;;;;;28.88;21.17;;;;;;;4.09;55.11;99466.25;4951291;28;97942;-83
2024/01/18 01:01:45;;;;;;;28.40;20.95;;;;;;;4.05;55.34;99470.94;4962566;28;97474;-83
2024/01/18 01:04:12;;;;;;;26.27;20.30;;;;;;;4.03;55.48;99483.47;4950879;28;98159;-83
2024/01/18 01:06:39;;;;;;;25.95;20.40;;;;;;;4.00;55.29;99477.50;4985145;28;97636;-84
2024/01/18 01:09:06;;;;;;;28.60;20.90;;;;;;;3.99;55.39;99481.09;4954941;28;97503;-84
2024/01/18 01:11:33;;;;;;;28.33;20.95;;;;;;;3.98;55.51;99479.41;4947844;28;96908;-84
2024/01/18 01:13:59;;;;;;;30.27;20.83;;;;;;;3.97;55.48;99490.97;4967510;28;97831;-83
2024/01/18 01:16:27;;;;;;;30.60;21.90;;;;;;;3.96;55.37;99483.97;4952364;28;99201;-83
2024/01/18 01:18:53;;;;;;;26.77;21.33;;;;;;;3.96;55.57;99483.97;4950526;28;97868;-84
2024/01/18 01:21:20;;;;;;;27.15;20.52;;;;;;;3.92;55.53;99485.13;4951478;28;97560;-83
2024/01/18 01:23:48;;;;;;;28.13;19.50;;;;;;;3.91;55.41;99486.06;4966545;28;98283;-83
2024/01/18 01:26:15;;;;;;;31.23;21.60;;;;;;;3.89;55.48;99488.81;4965149;28;98883;-83
2024/01/18 01:28:44;;;;;;;27.13;20.27;;;;;;;3.89;55.56;99488.81;4951879;28;97347;-81
2024/01/18 01:31:10;;;;;;;28.95;20.33;;;;;;;3.85;55.63;99484.66;4951750;28;97636;-83
2024/01/18 01:33:37;;;;;;;24.92;19.92;;;;;;;3.86;55.71;99491.69;4948602;28;99046;-83
2024/01/18 01:36:05;;;;;;;26.92;21.38;;;;;;;3.85;55.65;99491.78;4963631;28;100054;-84
2024/01/18 01:38:32;;;;;;;26.75;19.80;;;;;;;3.83;55.58;99495.41;4959879;28;96986;-83
2024/01/18 01:40:59;;;;;;;26.23;20.50;;;;;;;3.83;55.74;99500.69;4967357;28;98438;-83
2024/01/18 01:43:27;;;;;;;28.05;20.67;;;;;;;3.79;55.69;99501.84;4950910;28;100442;-83
2024/01/18 01:45:54;;;;;;;30.05;20.70;;;;;;;3.79;55.67;99501.84;4951183;28;100121;-84
2024/01/18 01:48:21;;;;;;;29.60;21.25;;;;;;;3.79;55.76;99503.66;4963599;28;97627;-84
2024/01/18 01:50:47;;;;;;;28.20;20.70;;;;;;;3.78;55.60;99505.47;4952629;28;97451;-83
2024/01/18 01:53:16;;;;;;;30.65;20.38;;;;;;;3.78;55.84;99509.91;4951477;28;98374;-84
2024/01/18 01:55:45;;;;;;;32.17;21.23;;;;;;;3.77;55.73;99517.03;4965259;28;98072;-83
2024/01/18 01:58:15;;;;;;;26.63;20.20;;;;;;;3.73;55.79;99517.31;4962625;28;97006;-83
2024/01/18 02:00:44;;;;;;;25.08;19.33;;;;;;;3.70;55.82;99515.69;4947818;28;97457;-83
2024/01/18 02:03:11;;;;;;;28.80;21.70;;;;;;;3.69;55.81;99521.09;4964314;28;97774;-84
2024/01/18 02:05:39;;;;;;;30.08;20.50;;;;;;;3.67;55.86;99525.66;4945543;28;98168;-84
2024/01/18 02:08:05;;;;;;;28.33;20.90;;;;;;;3.63;55.72;99519.69;4946604;28;97241;-83
2024/01/18 02:10:33;;;;;;;26.75;20.55;;;;;;;3.60;55.87;99527.84;4965844;28;97182;-84
2024/01/18 02:13:00;;;;;;;26.20;20.42;;;;;;;3.54;55.82;99519.41;4944796;28;100942;-84
2024/01/18 02:15:27;;;;;;;30.75;21.95;;;;;;;3.48;55.85;99525.97;4946795;28;100466;-83
2024/01/18 02:17:54;;;;;;;28.63;20.45;;;;;;;3.45;56.09;99528.81;4945539;28;97803;-83
2024/01/18 02:20:21;;;;;;;28.77;20.77;;;;;;;3.42;55.75;99529.88;4938252;28;97500;-84
2024/01/18 02:22:48;;;;;;;31.42;22.15;;;;;;;3.40;56.26;99538.88;4967421;28;97117;-84
2024/01/18 02:25:24;;;;;;;28.83;21.60;;;;;;;3.37;55.97;99536.41;4960996;28;98116;-84
2024/01/18 02:27:56;;;;;;;29.30;21.13;;;;;;;3.36;56.07;99532.91;4935977;28;97237;-84
2024/01/18 02:30:23;;;;;;;30.50;21.42;;;;;;;3.36;56.18;99534.69;4962417;28;97155;-84
2024/01/18 02:32:51;;;;;;;28.17;20.35;;;;;;;3.36;56.10;99543.50;4964649;28;97281;-85
2024/01/18 02:35:18;;;;;;;29.20;21.13;;;;;;;3.36;56.23;99545.31;4958964;28;99474;-84
2024/01/18 02:37:45;;;;;;;32.97;22.60;;;;;;;3.36;56.23;99546.16;4950168;28;97347;-82
2024/01/18 02:40:12;;;;;;;30.35;21.88;;;;;;;3.34;55.87;99550.72;4963513;28;96995;-84
2024/01/18 02:42:39;;;;;;;29.38;20.80;;;;;;;3.30;55.79;99543.91;4953216;28;97556;-81
2024/01/18 02:45:06;;;;;;;25.35;20.20;;;;;;;3.26;56.10;99545.03;4952760;28;97599;-81
2024/01/18 02:47:35;;;;;;;32.33;21.27;;;;;;;3.24;56.25;99544.28;4949942;28;96865;-82
2024/01/18 02:50:01;;;;;;;32.70;20.63;;;;;;;3.23;56.36;99544.38;4965618;28;96754;-84
2024/01/18 02:52:28;;;;;;;33.85;21.60;;;;;;;3.22;56.24;99540.00;4962120;28;99021;-84
2024/01/18 02:54:55;;;;;;;31.67;20.88;;;;;;;3.19;56.32;99541.91;4949460;28;100380;-84
2024/01/18 02:57:22;;;;;;;29.92;20.67;;;;;;;3.17;56.31;99538.50;4944185;28;98431;-84
2024/01/18 02:59:49;;;;;;;29.73;21.15;;;;;;;3.14;56.46;99529.88;4943326;28;98171;-84
2024/01/18 03:02:15;;;;;;;29.20;21.17;;;;;;;3.11;56.21;99528.25;4945298;28;100116;-82
2024/01/18 03:04:42;;;;;;;32.00;20.33;;;;;;;3.06;56.31;99534.78;4958957;28;101104;-84
2024/01/18 03:07:11;;;;;;;28.70;21.45;;;;;;;3.03;56.31;99542.94;4960097;28;97699;-85
2024/01/18 03:09:37;;;;;;;30.75;21.25;;;;;;;2.98;56.35;99540.56;4955857;28;97758;-84
2024/01/18 03:12:04;;;;;;;29.95;20.55;;;;;;;2.96;56.48;99542.44;4940544;28;98658;-82
2024/01/18 03:14:31;;;;;;;30.05;20.70;;;;;;;2.95;56.16;99545.16;4951514;28;98166;-83
2024/01/18 03:17:02;;;;;;;29.58;21.58;;;;;;;2.93;56.44;99547.06;4969458;28;96755;-83
2024/01/18 03:19:29;;;;;;;28.00;20.15;;;;;;;2.88;56.34;99547.34;4938756;28;97834;-82
2024/01/18 03:21:56;;;;;;;27.35;18.73;;;;;;;2.84;56.48;99543.16;4946014;28;98568;-82
2024/01/18 03:24:23;;;;;;;28.70;19.35;;;;;;;2.79;56.65;99550.53;4951296;28;98281;-82
2024/01/18 03:26:50;;;;;;;32.67;20.50;;;;;;;2.78;56.50;99548.84;4953470;28;97912;-82
2024/01/18 03:29:16;;;;;;;26.63;19.98;;;;;;;2.77;56.56;99558.59;4948857;28;97420;-82
2024/01/18 03:31:44;;;;;;;24.85;19.52;;;;;;;2.77;56.53;99552.44;4957546;28;97442;-82
2024/01/18 03:34:10;;;;;;;22.88;18.77;;;;;;;2.76;56.49;99548.06;4949218;28;99005;-82
2024/01/18 03:36:37;;;;;;;27.58;19.63;;;;;;;2.74;56.68;99550.81;4964596;28;97626;-82
2024/01/18 03:39:06;;;;;;;27.50;20.60;;;;;;;2.72;56.47;99550.06;4961681;28;97003;-82
2024/01/18 03:41:33;;;;;;;28.27;18.92;;;;;;;2.69;56.70;99550.25;4959307;28;97960;-82
2024/01/18 03:44:00;;;;;;;29.15;20.25;;;;;;;2.66;56.69;99554.88;4966122;28;98962;-82
2024/01/18 03:46:27;;;;;;;28.48;19.23;;;;;;;2.65;56.60;99561.13;4950911;28;97332;-82
2024/01/18 03:48:53;;;;;;;27.83;19.88;;;;;;;2.62;56.53;99561.31;4951574;28;98673;-83
2024/01/18 03:51:21;;;;;;;30.17;19.27;;;;;;;2.59;56.74;99564.13;4952002;28;100793;-82
2024/01/18 03:53:47;;;;;;;29.52;19.30;;;;;;;2.58;56.60;99562.41;4947549;28;100106;-84
2024/01/18 03:56:14;;;;;;;28.77;18.60;;;;;;;2.54;56.89;99572.34;4966607;28;98326;-83
2024/01/18 03:58:42;;;;;;;27.77;18.67;;;;;;;2.55;56.62;99574.06;4959366;28;97530;-82
2024/01/18 04:01:09;;;;;;;30.02;19.48;;;;;;;2.57;56.75;99584.56;4933888;28;100253;-82
2024/01/18 04:03:36;;;;;;;27.05;18.25;;;;;;;2.53;56.64;99576.78;4943750;28;100170;-84
2024/01/18 04:06:04;;;;;;;32.38;18.20;;;;;;;2.52;56.61;99577.75;4952660;28;97411;-83
2024/01/18 04:08:31;;;;;;;25.65;18.08;;;;;;;2.46;56.61;99578.09;4943185;28;99562;-83
2024/01/18 04:10:58;;;;;;;27.55;18.35;;;;;;;2.44;56.72;99572.03;4957769;28;98273;-84
2024/01/18 04:13:24;;;;;;;24.27;17.55;;;;;;;2.40;56.85;99578.44;4945892;28;100735;-84
2024/01/18 04:15:51;;;;;;;27.05;17.38;;;;;;;2.38;56.59;99579.47;4945633;28;96841;-84
2024/01/18 04:18:18;;;;;;;24.30;16.75;;;;;;;2.35;56.73;99577.00;4953003;28;98257;-84
2024/01/18 04:20:45;;;;;;;23.70;17.52;;;;;;;2.36;56.77;99584.88;4963912;28;98083;-84
2024/01/18 04:23:12;;;;;;;25.05;17.50;;;;;;;2.36;56.90;99584.88;4948844;28;98270;-85
2024/01/18 04:25:39;;;;;;;30.73;18.83;;;;;;;2.38;56.87;99585.63;4965040;28;98414;-83
2024/01/18 04:28:06;;;;;;;22.55;17.30;;;;;;;2.37;56.70;99591.03;4944211;28;96883;-84
2024/01/18 04:30:32;;;;;;;24.67;16.13;;;;;;;2.36;56.68;99598.13;4946200;28;98406;-84
2024/01/18 04:33:00;;;;;;;22.10;16.65;;;;;;;2.35;56.71;99596.41;4945269;28;98705;-84
2024/01/18 04:35:27;;;;;;;23.33;17.15;;;;;;;2.33;56.78;99592.16;4946326;28;98441;-84
2024/01/18 04:37:54;;;;;;;22.55;17.05;;;;;;;2.35;56.99;99601.72;4951668;28;98435;-84
2024/01/18 04:40:20;;;;;;;24.80;17.45;;;;;;;2.34;56.75;99605.31;4947018;28;97948;-84
2024/01/18 04:42:47;;;;;;;26.25;16.45;;;;;;;2.35;56.81;99598.22;4936183;28;97298;-84
2024/01/18 04:45:14;;;;;;;25.05;17.48;;;;;;;2.38;56.70;99608.63;4958463;28;98500;-83
2024/01/18 04:47:41;;;;;;;22.15;17.08;;;;;;;2.39;56.88;99612.97;4961550;28;98842;-83
2024/01/18 04:50:08;;;;;;;26.17;17.23;;;;;;;2.43;57.04;99617.16;4959858;28;97920;-82
2024/01/18 04:52:35;;;;;;;22.92;17.50;;;;;;;2.45;56.75;99616.13;4936024;28;98028;-83
2024/01/18 04:55:04;;;;;;;25.42;16.77;;;;;;;2.46;57.00;99625.78;4948623;28;96899;-83
2024/01/18 04:57:35;;;;;;;24.15;17.92;;;;;;;2.45;56.73;99624.09;4947627;28;97075;-83
2024/01/18 05:00:09;;;;;;;23.50;17.20;;;;;;;2.45;56.82;99629.38;4957925;28;100151;-82
2024/01/18 05:02:37;;;;;;;24.52;16.83;;;;;;;2.46;56.85;99632.88;4944977;28;99295;-83
2024/01/18 05:05:06;;;;;;;27.80;17.92;;;;;;;2.44;56.85;99640.94;4945172;28;96729;-82
2024/01/18 05:07:33;;;;;;;25.75;17.08;;;;;;;2.44;56.70;99640.94;4966815;28;97275;-82
2024/01/18 05:10:00;;;;;;;22.48;16.90;;;;;;;2.44;56.80;99643.56;4965085;28;97587;-83
2024/01/18 05:12:27;;;;;;;28.77;17.20;;;;;;;2.43;56.68;99638.38;4954275;28;98200;-82
2024/01/18 05:14:56;;;;;;;23.88;17.58;;;;;;;2.44;56.70;99634.78;4944632;28;97508;-82
2024/01/18 05:17:23;;;;;;;22.75;16.77;;;;;;;2.42;56.93;99642.81;4958890;28;98167;-83
2024/01/18 05:19:49;;;;;;;26.23;16.95;;;;;;;2.41;56.73;99646.41;4956779;28;98307;-82
2024/01/18 05:22:19;;;;;;;23.10;17.20;;;;;;;2.38;56.75;99643.94;4954745;28;97659;-82
2024/01/18 05:24:46;;;;;;;25.23;17.08;;;;;;;2.36;56.49;99648.47;4969340;28;97133;-83
2024/01/18 05:27:13;;;;;;;25.63;18.08;;;;;;;2.36;56.81;99644.94;4943982;28;98569;-83
2024/01/18 05:29:40;;;;;;;24.23;16.70;;;;;;;2.35;56.75;99646.75;4940594;28;100572;-82
2024/01/18 05:32:06;;;;;;;26.42;16.63;;;;;;;2.33;56.82;99650.41;4943458;28;100506;-82
2024/01/18 05:34:34;;;;;;;22.65;15.95;;;;;;;2.31;56.75;99652.31;4943551;28;98195;-82
2024/01/18 05:37:00;;;;;;;24.45;17.00;;;;;;;2.28;56.82;99666.56;4944387;28;97502;-83
2024/01/18 05:39:27;;;;;;;20.15;15.98;;;;;;;2.23;56.84;99665.97;4942533;28;98549;-83
2024/01/18 05:41:54;;;;;;;22.60;17.02;;;;;;;2.13;56.80;99670.91;4943874;28;97929;-83
2024/01/18 05:44:21;;;;;;;26.70;17.08;;;;;;;2.05;56.91;99678.41;4942524;28;98089;-83
2024/01/18 05:46:48;;;;;;;24.00;15.07;;;;;;;1.95;56.58;99676.34;4939082;28;97877;-84
2024/01/18 05:49:14;;;;;;;23.10;16.23;;;;;;;1.88;56.74;99689.91;4939864;28;98816;-85
2024/01/18 05:51:41;;;;;;;26.15;16.65;;;;;;;1.87;56.83;99693.50;4960587;28;98364;-84
2024/01/18 05:54:10;;;;;;;22.67;16.17;;;;;;;1.88;56.75;99681.97;4948811;28;98308;-84
2024/01/18 05:56:36;;;;;;;25.40;16.77;;;;;;;1.89;56.94;99683.69;4956139;28;97243;-83
2024/01/18 05:59:03;;;;;;;23.35;16.70;;;;;;;1.90;56.79;99697.78;4957862;28;99988;-83
2024/01/18 06:01:31;;;;;;;26.20;17.80;;;;;;;1.90;56.79;99693.34;4942711;28;98116;-83
2024/01/18 06:03:58;;;;;;;24.42;15.45;;;;;;;1.90;56.74;99703.94;4942525;28;98310;-83
2024/01/18 06:06:25;;;;;;;23.88;15.70;;;;;;;1.89;56.82;99709.31;4939833;28;97479;-82
2024/01/18 06:08:52;;;;;;;28.35;16.77;;;;;;;1.87;56.84;99709.41;4939745;28;97914;-82
2024/01/18 06:11:19;;;;;;;25.23;17.33;;;;;;;1.86;56.72;99701.53;4940880;28;100416;-83
2024/01/18 06:13:45;;;;;;;24.67;17.45;;;;;;;1.85;56.82;99713.06;4936930;28;97724;-83
2024/01/18 06:16:12;;;;;;;23.17;15.95;;;;;;;1.80;56.58;99712.44;4942636;28;97227;-83
2024/01/18 06:18:42;;;;;;;23.33;16.75;;;;;;;1.77;56.39;99717.91;4941908;28;98717;-83
2024/01/18 06:21:10;;;;;;;24.00;16.33;;;;;;;1.75;56.71;99717.13;4953630;28;99417;-83
2024/01/18 06:23:37;;;;;;;24.33;16.52;;;;;;;1.73;56.72;99717.22;4947794;28;96839;-83
2024/01/18 06:26:08;;;;;;;22.70;16.50;;;;;;;1.73;56.84;99722.50;4926484;28;97304;-82
2024/01/18 06:28:35;;;;;;;24.83;16.02;;;;;;;1.71;56.68;99728.81;4962785;28;98104;-82
2024/01/18 06:31:02;;;;;;;22.50;15.80;;;;;;;1.69;56.80;99734.19;4944316;28;100056;-83
2024/01/18 06:33:29;;;;;;;23.25;15.77;;;;;;;1.69;56.89;99747.41;4938775;28;97424;-82
2024/01/18 06:35:56;;;;;;;24.75;14.77;;;;;;;1.70;56.85;99750.94;4942802;28;97972;-82
2024/01/18 06:38:23;;;;;;;22.27;14.57;;;;;;;1.70;56.62;99754.44;4962582;28;98498;-84
2024/01/18 06:40:49;;;;;;;19.65;14.15;;;;;;;1.71;56.75;99764.06;4949110;28;98580;-83
2024/01/18 06:43:16;;;;;;;26.92;15.52;;;;;;;1.72;56.64;99759.63;4944507;28;97257;-82
2024/01/18 06:45:44;;;;;;;20.80;15.82;;;;;;;1.69;56.67;99765.94;4955103;28;97216;-83
2024/01/18 06:48:11;;;;;;;21.15;15.00;;;;;;;1.68;56.69;99769.53;4937938;28;100326;-84
2024/01/18 06:50:38;;;;;;;28.15;15.20;;;;;;;1.66;56.73;99768.75;4952153;28;97439;-82
2024/01/18 06:53:05;;;;;;;20.65;13.82;;;;;;;1.67;56.84;99765.16;4928789;28;97223;-83
2024/01/18 06:55:32;;;;;;;21.70;13.65;;;;;;;1.69;56.88;99767.75;4945390;28;97202;-82
2024/01/18 06:58:02;;;;;;;19.77;13.40;;;;;;;1.70;56.69;99770.31;4944227;28;98404;-82
2024/01/18 07:00:30;;;;;;;19.25;13.70;;;;;;;1.70;56.68;99769.44;4928969;28;100206;-83
2024/01/18 07:02:57;;;;;;;29.20;16.33;;;;;;;1.68;56.58;99772.19;4924299;28;97652;-82
2024/01/18 07:05:24;;;;;;;18.35;13.35;;;;;;;1.63;56.65;99784.78;4966871;28;96981;-82
2024/01/18 07:07:51;;;;;;;22.38;15.95;;;;;;;1.61;56.72;99793.75;4939331;28;99083;-82
2024/01/18 07:10:18;;;;;;;26.00;16.40;;;;;;;1.57;56.69;99796.53;4932660;28;100332;-82
2024/01/18 07:12:45;;;;;;;22.35;14.60;;;;;;;1.54;56.66;99802.00;4943504;28;98584;-83
2024/01/18 07:15:13;;;;;;;26.17;16.90;;;;;;;1.53;56.68;99810.88;4944625;28;97056;-82
2024/01/18 07:17:39;;;;;;;25.70;16.10;;;;;;;1.52;56.87;99803.00;4943813;28;100019;-82
2024/01/18 07:20:07;;;;;;;25.02;16.05;;;;;;;1.50;56.74;99799.59;4948829;28;100703;-81
2024/01/18 07:22:34;;;;;;;20.63;15.13;;;;;;;1.52;56.60;99805.66;4946753;28;97829;-83
2024/01/18 07:25:05;;;;;;;23.65;14.68;;;;;;;1.52;56.50;99816.25;4964054;28;98870;-82
2024/01/18 07:27:32;;;;;;;20.67;14.13;;;;;;;1.53;56.62;99823.25;4947117;28;98309;-82
2024/01/18 07:29:59;;;;;;;21.42;14.82;;;;;;;1.53;56.43;99821.44;4949789;28;97226;-82
2024/01/18 07:32:26;;;;;;;25.35;15.55;;;;;;;1.54;56.67;99820.53;4932578;28;97270;-82
2024/01/18 07:34:52;;;;;;;24.45;15.98;;;;;;;1.55;56.67;99821.38;4959766;28;97676;-83
2024/01/18 07:37:19;;;;;;;22.40;15.68;;;;;;;1.54;56.54;99827.59;4932718;28;98327;-82
2024/01/18 07:39:46;;;;;;;23.27;15.63;;;;;;;1.50;56.66;99823.41;4948396;28;98250;-82
2024/01/18 07:42:13;;;;;;;22.67;15.57;;;;;;;1.51;56.71;99825.97;4946056;28;97413;-83
2024/01/18 07:44:42;;;;;;;25.83;15.48;;;;;;;1.51;56.52;99822.47;4940960;28;97287;-82
2024/01/18 07:47:10;;;;;;;33.22;16.40;;;;;;;1.52;56.67;99829.47;4948906;28;99000;-82
2024/01/18 07:49:42;;;;;;;22.65;15.85;;;;;;;1.53;56.66;99831.19;4969981;28;98588;-82
2024/01/18 07:52:14;;;;;;;24.10;15.43;;;;;;;1.53;56.49;99833.81;4970293;28;97459;-82
2024/01/18 07:54:41;;;;;;;28.48;16.27;;;;;;;1.54;56.69;99840.81;4933594;28;99115;-83
2024/01/18 07:57:09;;;;;;;25.13;16.02;;;;;;;1.55;56.60;99842.53;4948423;28;99762;-82
2024/01/18 07:59:36;;;;;;;22.25;16.13;;;;;;;1.55;56.57;99842.53;4945012;28;98355;-82
2024/01/18 08:02:03;;;;;;;24.17;17.02;;;;;;;1.55;56.66;99851.34;4941319;28;96975;-82
2024/01/18 08:04:31;;;;;;;27.00;16.48;;;;;;;1.55;56.52;99850.47;4934578;28;97372;-82
2024/01/18 08:06:57;;;;;;;26.55;17.45;;;;;;;1.55;56.55;99855.78;4950347;28;100058;-82
2024/01/18 08:09:26;;;;;;;25.65;16.40;;;;;;;1.53;56.45;99869.06;4962731;28;98271;-83
2024/01/18 08:11:53;;;;;;;26.50;16.10;;;;;;;1.52;56.43;99870.00;4963853;28;96740;-82
2024/01/18 08:14:20;;;;;;;24.42;16.92;;;;;;;1.52;56.62;99874.44;4956211;28;97035;-82
2024/01/18 08:16:46;;;;;;;26.08;17.15;;;;;;;1.48;56.60;99884.28;4948446;28;98164;-82
2024/01/18 08:19:13;;;;;;;24.65;17.85;;;;;;;1.45;56.49;99884.44;4948275;28;100443;-82
2024/01/18 08:21:43;;;;;;;25.52;17.55;;;;;;;1.43;56.59;99890.75;4953094;28;97393;-82
2024/01/18 08:24:11;;;;;;;30.05;18.08;;;;;;;1.43;56.52;99888.94;4947139;28;97362;-82
2024/01/18 08:26:40;;;;;;;29.33;18.75;;;;;;;1.46;56.72;99896.75;4962029;28;98219;-82
2024/01/18 08:29:08;;;;;;;28.75;18.80;;;;;;;1.48;56.64;99899.31;4930397;28;98208;-81
2024/01/18 08:31:35;;;;;;;29.40;19.33;;;;;;;1.48;56.46;99901.97;4962378;28;97234;-82
2024/01/18 08:34:02;;;;;;;32.35;20.38;;;;;;;1.49;56.70;99906.34;4954518;28;97227;-81
2024/01/18 08:36:29;;;;;;;29.58;20.75;;;;;;;1.52;56.61;99912.34;4964777;28;98711;-81
2024/01/18 08:38:56;;;;;;;31.90;20.20;;;;;;;1.56;56.80;99916.56;4959601;28;98353;-82
2024/01/18 08:41:23;;;;;;;28.80;20.00;;;;;;;1.59;56.64;99916.41;4942000;28;97438;-82
2024/01/18 08:43:50;;;;;;;27.73;19.80;;;;;;;1.65;56.59;99924.97;4945642;28;96888;-82
2024/01/18 08:46:16;;;;;;;29.40;19.90;;;;;;;1.65;56.72;99933.78;4935831;28;98064;-82
2024/01/18 08:48:44;;;;;;;28.35;19.75;;;;;;;1.67;56.79;99934.56;4938585;28;98041;-82
2024/01/18 08:51:14;;;;;;;29.00;20.52;;;;;;;1.72;56.71;99945.78;4944521;28;97676;-83
2024/01/18 08:53:41;;;;;;;31.05;18.83;;;;;;;1.72;56.75;99939.63;4945619;28;97270;-82
2024/01/18 08:56:08;;;;;;;32.50;21.65;;;;;;;1.71;56.68;99949.34;4961464;28;97555;-82
2024/01/18 08:58:38;;;;;;;32.67;20.58;;;;;;;1.75;56.78;99950.06;4942743;28;98752;-82
2024/01/18 09:01:05;;;;;;;29.45;19.80;;;;;;;1.78;56.87;99960.50;4958350;28;96834;-82
2024/01/18 09:03:34;;;;;;;28.48;19.27;;;;;;;1.81;56.64;99963.00;4950644;28;97501;-82
2024/01/18 09:06:01;;;;;;;26.63;19.90;;;;;;;1.84;56.80;99966.34;4954863;28;99316;-82
2024/01/18 09:08:28;;;;;;;28.83;18.90;;;;;;;1.87;56.76;99968.84;4938290;28;98223;-82
2024/01/18 09:10:55;;;;;;;26.35;19.40;;;;;;;1.91;56.84;99969.53;4958735;28;97685;-82
2024/01/18 09:13:29;;;;;;;26.90;18.90;;;;;;;1.95;56.83;99976.41;4930813;28;97157;-82
2024/01/18 09:15:55;;;;;;;27.27;19.15;;;;;;;1.99;56.89;99972.66;4931129;28;97302;-83
2024/01/18 09:18:22;;;;;;;27.55;18.80;;;;;;;2.03;56.81;99976.88;4944204;28;100428;-83
2024/01/18 09:20:49;;;;;;;24.23;17.55;;;;;;;2.07;57.02;99980.22;4948370;28;98434;-83
2024/01/18 09:23:15;;;;;;;22.67;16.92;;;;;;;2.10;56.95;99986.22;4944830;28;97343;-83
2024/01/18 09:25:42;;;;;;;29.45;18.05;;;;;;;2.14;57.01;99992.22;4941917;28;99797;-83
2024/01/18 09:28:10;;;;;;;26.63;17.23;;;;;;;2.18;56.91;99993.78;4943327;28;100116;-83
2024/01/18 09:30:37;;;;;;;25.05;17.83;;;;;;;2.22;56.88;100000.66;4944282;28;97314;-82
2024/01/18 09:33:09;;;;;;;25.83;16.83;;;;;;;2.26;56.87;100004.03;4940580;28;96974;-82
2024/01/18 09:35:38;;;;;;;22.73;16.27;;;;;;;2.26;56.95;100007.53;4938712;28;97611;-81
2024/01/18 09:38:05;;;;;;;25.35;16.98;;;;;;;2.33;57.01;100008.09;4947176;28;100205;-83
2024/01/18 09:40:31;;;;;;;23.17;16.85;;;;;;;2.36;57.05;100019.38;4952403;28;97074;-83
2024/01/18 09:43:03;;;;;;;26.70;17.77;;;;;;;2.38;56.94;100019.31;4956994;28;98478;-83
2024/01/18 09:45:32;;;;;;;25.92;18.35;;;;;;;2.44;57.09;100026.94;4922525;28;98589;-83
2024/01/18 09:47:59;;;;;;;23.17;17.15;;;;;;;2.47;57.07;100032.09;4944413;28;97519;-82
2024/01/18 09:50:27;;;;;;;22.95;16.13;;;;;;;2.50;56.96;100043.38;4938939;28;96820;-83
2024/01/18 09:52:54;;;;;;;24.05;16.10;;;;;;;2.54;57.03;100046.75;4965624;28;98319;-83
2024/01/18 09:55:20;;;;;;;23.25;14.50;;;;;;;2.58;57.20;100055.41;4948015;28;99505;-82
2024/01/18 09:57:49;;;;;;;18.13;13.00;;;;;;;2.61;57.06;100056.09;4962308;28;98375;-83
2024/01/18 10:00:21;;;;;;;14.60;10.43;;;;;;;2.64;57.42;100060.38;4943234;28;97269;-83
2024/01/18 10:02:48;;;;;;;17.88;9.13;;;;;;;2.71;57.36;100067.09;4942329;28;97410;-83
2024/01/18 10:05:15;;;;;;;14.23;9.10;;;;;;;2.77;57.38;100067.63;4943793;28;98222;-83
2024/01/18 10:07:41;;;;;;;9.65;7.13;;;;;;;2.84;57.43;100076.13;4927384;28;100538;-83
2024/01/18 10:10:12;;;;;;;13.38;7.03;;;;;;;2.91;57.43;100082.81;4961161;28;97614;-83
2024/01/18 10:12:41;;;;;;;10.52;7.30;;;;;;;2.99;57.35;100093.94;4961566;28;97714;-83
2024/01/18 10:15:09;;;;;;;9.05;6.63;;;;;;;3.07;57.49;100096.19;4942237;28;98998;-82
2024/01/18 10:17:39;;;;;;;9.18;6.03;;;;;;;3.13;57.46;100098.50;4943237;28;97818;-83
2024/01/18 10:20:13;;;;;;;8.50;5.65;;;;;;;3.21;57.53;100108.72;4944471;28;97253;-83
2024/01/18 10:22:41;;;;;;;;;;;;;;;3.29;57.57;100110.03;4942161;28;98176;-82
2024/01/18 10:25:12;;;;;;;11.40;5.82;;;;;;;3.40;57.48;100110.31;4960537;28;98073;-83
2024/01/18 10:27:42;;;;;;;8.32;4.88;;;;;;;3.46;57.37;100114.44;4941434;28;100371;-82
2024/01/18 10:30:12;;;;;;;13.50;5.68;;;;;;;3.50;57.19;100119.50;4946255;28;97407;-82
2024/01/18 10:32:45;;;;;;;10.00;4.78;;;;;;;3.58;57.37;100124.41;4928863;28;99585;-82
2024/01/18 10:35:23;;;;;;;8.35;4.82;;;;;;;3.66;57.41;100127.50;4963598;28;97797;-82
2024/01/18 10:38:00;;;;;;;11.77;5.47;;;;;;;3.74;57.45;100124.47;4946808;28;98212;-82
2024/01/18 10:40:30;;;;;;;8.02;5.32;;;;;;;3.80;57.40;100134.75;4945209;28;97264;-82
2024/01/18 10:42:57;;;;;;;14.25;5.93;;;;;;;3.87;57.33;100133.47;4940595;28;97852;-82
2024/01/18 10:45:27;;;;;;;10.50;5.70;;;;;;;3.93;57.37;100134.94;4936652;28;98091;-84
2024/01/18 10:47:55;;;;;;;13.65;5.43;;;;;;;3.98;57.22;100135.53;4942412;28;98156;-82
2024/01/18 10:50:23;;;;;;;8.30;5.97;;;;;;;4.05;57.17;100140.41;4961538;28;98577;-82
2024/01/18 10:52:51;;;;;;;8.85;5.85;;;;;;;4.12;57.16;100140.94;4960224;28;97103;-82
2024/01/18 10:55:18;;;;;;;8.38;5.90;;;;;;;4.19;57.36;100144.97;4944154;28;100347;-82
2024/01/18 10:57:45;;;;;;;11.63;7.00;;;;;;;4.24;57.15;100136.75;4957802;28;99862;-82
2024/01/18 11:00:16;;;;;;;8.30;6.55;;;;;;;4.29;57.13;100142.66;4950610;28;97243;-82
2024/01/18 11:02:44;;;;;;;13.95;6.40;;;;;;;4.34;57.10;100146.75;4946863;28;97306;-82
2024/01/18 11:05:13;;;;;;;6.55;5.85;;;;;;;4.41;57.18;100155.25;4968011;28;97262;-82
2024/01/18 11:07:41;;;;;;;12.75;5.95;;;;;;;4.45;56.93;100157.66;4948373;28;99614;-83
2024/01/18 11:10:11;;;;;;;9.48;5.65;;;;;;;4.50;56.92;100151.25;4941645;28;96772;-82
2024/01/18 11:12:42;;;;;;;12.32;6.25;;;;;;;4.57;57.26;100157.91;4929877;28;97928;-82
2024/01/18 11:15:13;;;;;;;9.85;6.15;;;;;;;4.63;57.04;100157.56;4939834;28;97996;-82
2024/01/18 11:17:48;;;;;;;9.93;6.53;;;;;;;4.69;56.87;100165.19;4955012;28;98239;-83
2024/01/18 11:20:15;;;;;;;11.10;5.97;;;;;;;4.73;56.89;100159.59;4945113;28;96931;-82
2024/01/18 11:22:43;;;;;;;11.85;5.85;;;;;;;4.79;56.95;100164.56;4947875;28;97369;-82
2024/01/18 11:25:11;;;;;;;10.68;5.90;;;;;;;4.86;57.05;100173.06;4956873;28;98217;-82